createdAt,value
2018-09-24T00:02:37.024Z,0.77
2018-09-24T00:05:08.144Z,0.70
2018-09-24T00:07:38.726Z,0.60
2018-09-24T00:10:08.923Z,0.60
2018-09-24T00:12:38.963Z,0.60
2018-09-24T00:15:10.363Z,0.60
2018-09-24T00:17:42.725Z,0.67
2018-09-24T00:20:12.663Z,0.77
2018-09-24T00:22:43.043Z,0.80
2018-09-24T00:25:18.625Z,0.40
2018-09-24T00:27:49.345Z,0.60
2018-09-24T00:30:21.538Z,0.70
2018-09-24T00:32:51.999Z,0.73
2018-09-24T00:35:29.783Z,0.50
2018-09-24T00:38:02.482Z,0.60
2018-09-24T00:40:34.503Z,0.60
2018-09-24T00:43:06.083Z,0.43
2018-09-24T00:45:36.843Z,0.60
2018-09-24T00:48:08.242Z,0.70
2018-09-24T00:50:41.722Z,0.70
2018-09-24T00:53:13.964Z,0.70
2018-09-24T00:55:45.885Z,0.93
2018-09-24T00:58:17.122Z,0.57
2018-09-24T01:00:47.620Z,0.77
2018-09-24T01:03:17.642Z,0.80
2018-09-24T01:05:49.260Z,0.67
2018-09-24T01:08:20.360Z,1.20
2018-09-24T01:10:52.740Z,0.57
2018-09-24T01:13:22.500Z,0.70
2018-09-24T01:15:52.780Z,0.73
2018-09-24T01:18:22.860Z,0.70
2018-09-24T01:20:54.239Z,0.50
2018-09-24T01:23:24.359Z,0.60
2018-09-24T01:25:54.759Z,0.70
2018-09-24T01:28:33.458Z,0.70
2018-09-24T01:31:04.806Z,0.90
2018-09-24T01:33:34.879Z,0.60
2018-09-24T01:36:17.378Z,0.50
2018-09-24T01:38:54.818Z,0.60
2018-09-24T01:41:25.286Z,0.60
2018-09-24T01:43:55.283Z,0.60
2018-09-24T01:46:25.421Z,0.67
2018-09-24T01:48:55.438Z,0.57
2018-09-24T01:51:36.778Z,0.50
2018-09-24T01:54:07.719Z,0.70
2018-09-24T01:56:39.178Z,0.60
2018-09-24T01:59:09.144Z,0.77
2018-09-24T02:01:41.359Z,0.60
2018-09-24T02:04:11.318Z,0.67
2018-09-24T02:06:43.338Z,0.97
2018-09-24T02:09:14.799Z,0.67
2018-09-24T02:11:45.703Z,0.70
2018-09-24T02:14:15.778Z,0.70
2018-09-24T02:16:45.758Z,0.63
2018-09-24T02:19:15.998Z,0.60
2018-09-24T02:21:47.301Z,0.80
2018-09-24T02:24:18.701Z,0.67
2018-09-24T02:26:49.041Z,0.70
2018-09-24T02:29:18.961Z,0.60
2018-09-24T02:31:50.220Z,0.60
2018-09-24T02:34:21.902Z,0.70
2018-09-24T02:36:52.318Z,0.63
2018-09-24T02:39:22.400Z,0.60
2018-09-24T02:41:56.320Z,0.80
2018-09-24T02:44:27.901Z,0.80
2018-09-24T02:47:13.818Z,0.70
2018-09-24T02:49:44.798Z,0.70
2018-09-24T02:52:16.438Z,0.60
2018-09-24T02:54:46.737Z,0.60
2018-09-24T02:57:16.978Z,0.70
2018-09-24T02:59:47.038Z,0.60
2018-09-24T03:02:20.560Z,0.70
2018-09-24T03:04:56.983Z,0.70
2018-09-24T03:07:32.003Z,0.70
2018-09-24T03:10:02.183Z,0.60
2018-09-24T03:12:32.142Z,0.93
2018-09-24T03:15:04.521Z,0.70
2018-09-24T03:17:34.563Z,0.70
2018-09-24T03:20:04.564Z,0.80
2018-09-24T03:22:36.122Z,0.53
2018-09-24T03:25:06.141Z,0.77
2018-09-24T03:27:36.141Z,0.70
2018-09-24T03:30:07.360Z,0.70
2018-09-24T03:32:41.080Z,0.90
2018-09-24T03:35:11.201Z,0.70
2018-09-24T03:37:46.762Z,0.90
2018-09-24T03:40:18.084Z,0.70
2018-09-24T03:42:49.622Z,0.70
2018-09-24T03:45:21.320Z,0.67
2018-09-24T03:47:52.223Z,0.50
2018-09-24T03:50:23.440Z,0.50
2018-09-24T03:52:55.939Z,0.60
2018-09-24T03:55:26.220Z,0.70
2018-09-24T03:57:58.441Z,0.70
2018-09-24T04:00:28.966Z,0.53
2018-09-24T04:02:59.023Z,0.50
2018-09-24T04:05:35.183Z,0.60
2018-09-24T04:08:09.941Z,0.60
2018-09-24T04:10:45.945Z,0.60
2018-09-24T04:13:20.841Z,0.67
2018-09-24T04:15:58.199Z,0.50
2018-09-24T04:18:33.221Z,0.40
2018-09-24T04:21:09.201Z,0.70
2018-09-24T04:23:46.424Z,0.60
2018-09-24T04:26:21.678Z,0.50
2018-09-24T04:29:00.061Z,0.70
2018-09-24T04:31:36.561Z,0.63
2018-09-24T04:34:13.324Z,0.50
2018-09-24T04:36:48.541Z,0.50
2018-09-24T04:39:23.681Z,0.60
2018-09-24T04:41:59.160Z,0.50
2018-09-24T04:44:33.821Z,0.43
2018-09-24T04:47:11.580Z,0.50
2018-09-24T04:49:49.497Z,0.50
2018-09-24T04:52:24.342Z,0.50
2018-09-24T04:54:59.161Z,0.40
2018-09-24T04:57:33.921Z,0.60
2018-09-24T05:00:09.776Z,0.60
2018-09-24T05:05:25.080Z,0.50
2018-09-24T05:08:00.480Z,0.50
2018-09-24T05:13:23.681Z,0.50
2018-09-24T05:15:58.719Z,0.70
2018-09-24T05:18:36.208Z,0.50
2018-09-24T05:21:13.821Z,0.60
2018-09-24T05:23:53.222Z,0.60
2018-09-24T05:29:08.701Z,0.60
2018-09-24T05:31:44.520Z,0.70
2018-09-24T05:34:20.069Z,0.50
2018-09-24T05:36:55.440Z,0.60
2018-09-24T05:39:31.480Z,0.60
2018-09-24T05:42:08.780Z,0.50
2018-09-24T05:44:44.800Z,0.70
2018-09-24T05:50:00.480Z,0.60
2018-09-24T05:52:35.781Z,0.60
2018-09-24T05:57:51.841Z,0.60
2018-09-24T06:00:27.222Z,0.60
2018-09-24T06:03:02.482Z,0.50
2018-09-24T06:05:37.738Z,0.60
2018-09-24T06:08:13.878Z,0.50
2018-09-24T06:10:49.940Z,0.60
2018-09-24T06:13:24.700Z,0.60
2018-09-24T06:15:59.480Z,0.70
2018-09-24T06:18:34.640Z,0.50
2018-09-24T06:21:09.581Z,0.60
2018-09-24T06:23:44.621Z,0.63
2018-09-24T06:26:19.233Z,0.80
2018-09-24T06:28:55.138Z,0.50
2018-09-24T06:31:31.018Z,0.60
2018-09-24T06:34:05.780Z,0.40
2018-09-24T06:36:40.546Z,0.50
2018-09-24T06:39:15.842Z,0.60
2018-09-24T06:41:51.521Z,0.63
2018-09-24T06:44:26.398Z,0.40
2018-09-24T06:47:01.281Z,0.43
2018-09-24T06:49:36.184Z,0.40
2018-09-24T06:52:12.644Z,0.37
2018-09-24T06:54:48.788Z,0.50
2018-09-24T06:57:23.680Z,0.30
2018-09-24T06:59:58.481Z,0.90
2018-09-24T07:02:33.664Z,0.40
2018-09-24T07:05:08.647Z,0.40
2018-09-24T07:07:45.785Z,0.40
2018-09-24T07:10:20.644Z,0.43
2018-09-24T07:12:55.785Z,0.37
2018-09-24T07:15:31.105Z,0.30
2018-09-24T07:20:48.402Z,0.30
2018-09-24T07:23:23.681Z,0.33
2018-09-24T07:25:58.647Z,0.40
2018-09-24T07:28:33.861Z,0.30
2018-09-24T07:31:10.541Z,0.70
2018-09-24T07:33:45.533Z,0.37
2018-09-24T07:39:01.095Z,0.50
2018-09-24T07:41:37.646Z,0.40
2018-09-24T07:44:13.701Z,0.50
2018-09-24T07:46:49.402Z,0.30
2018-09-24T07:49:24.880Z,0.40
2018-09-24T07:51:59.968Z,0.50
2018-09-24T07:54:35.361Z,0.60
2018-09-24T07:57:12.740Z,0.50
2018-09-24T07:59:50.781Z,0.50
2018-09-24T08:02:26.440Z,0.50
2018-09-24T08:05:03.999Z,0.50
2018-09-24T08:07:39.787Z,0.70
2018-09-24T08:10:15.559Z,0.53
2018-09-24T08:12:52.436Z,0.60
2018-09-24T08:15:28.879Z,0.60
2018-09-24T08:18:04.691Z,0.40
2018-09-24T08:20:42.459Z,0.63
2018-09-24T08:23:27.901Z,0.67
2018-09-24T08:26:09.983Z,0.47
2018-09-24T08:29:08.438Z,0.60
2018-09-24T08:31:46.878Z,0.90
2018-09-24T08:34:24.638Z,0.77
2018-09-24T08:37:16.524Z,0.70
2018-09-24T08:41:05.579Z,0.70
2018-09-24T08:43:59.935Z,0.60
2018-09-24T08:46:35.318Z,0.70
2018-09-24T08:49:11.518Z,0.80
2018-09-24T08:51:46.581Z,0.60
2018-09-24T08:54:21.762Z,0.60
2018-09-24T08:56:57.508Z,0.77
2018-09-24T08:59:37.018Z,0.70
2018-09-24T09:02:13.979Z,0.70
2018-09-24T09:04:51.039Z,0.70
2018-09-24T09:07:26.599Z,0.60
2018-09-24T09:10:10.308Z,0.73
2018-09-24T09:12:45.659Z,0.70
2018-09-24T09:15:22.719Z,0.53
2018-09-24T09:18:00.000Z,0.60
2018-09-24T09:20:42.479Z,0.53
2018-09-24T09:23:27.560Z,0.60
2018-09-24T09:26:07.499Z,0.70
2018-09-24T09:31:23.521Z,0.50
2018-09-24T09:34:01.759Z,0.60
2018-09-24T09:36:36.762Z,0.63
2018-09-24T09:39:17.919Z,0.67
2018-09-24T09:41:52.920Z,0.80
2018-09-24T09:44:28.121Z,0.60
2018-09-24T09:47:03.159Z,0.60
2018-09-24T09:49:38.440Z,0.80
2018-09-24T09:52:14.680Z,0.60
2018-09-24T09:54:49.540Z,0.60
2018-09-24T09:57:24.679Z,0.63
2018-09-24T10:02:39.325Z,0.80
2018-09-24T10:07:54.729Z,0.63
2018-09-24T10:10:29.465Z,0.80
2018-09-24T10:13:06.405Z,0.80
2018-09-24T10:18:24.485Z,0.60
2018-09-24T10:20:59.486Z,0.60
2018-09-24T10:23:37.767Z,0.83
2018-09-24T10:26:12.645Z,0.70
2018-09-24T10:31:13.646Z,0.70
2018-09-24T10:33:51.268Z,0.93
2018-09-24T10:36:27.085Z,0.80
2018-09-24T10:39:04.405Z,0.60
2018-09-24T10:41:43.546Z,0.77
2018-09-24T10:44:18.301Z,0.80
2018-09-24T10:46:53.093Z,0.87
2018-09-24T10:49:27.745Z,0.70
2018-09-24T10:52:04.005Z,0.90
2018-09-24T10:54:39.654Z,0.80
2018-09-24T10:57:14.609Z,0.90
2018-09-24T10:59:49.605Z,0.77
2018-09-24T11:02:30.644Z,0.80
2018-09-24T11:05:05.824Z,0.87
2018-09-24T11:07:44.984Z,0.87
2018-09-24T11:10:20.285Z,0.70
2018-09-24T11:12:55.144Z,0.90
2018-09-24T11:15:30.284Z,0.73
2018-09-24T11:18:05.236Z,0.93
2018-09-24T11:20:40.882Z,0.60
2018-09-24T11:23:16.960Z,1.00
2018-09-24T11:25:52.640Z,0.90
2018-09-24T11:28:29.601Z,0.83
2018-09-24T11:31:06.080Z,0.70
2018-09-24T11:36:21.542Z,0.90
2018-09-24T11:38:57.222Z,1.17
2018-09-24T11:41:32.880Z,0.90
2018-09-24T11:44:11.246Z,0.83
2018-09-24T11:46:46.924Z,0.80
2018-09-24T11:49:22.411Z,0.70
2018-09-24T11:51:57.600Z,0.70
2018-09-24T11:54:32.800Z,0.70
2018-09-24T11:57:18.522Z,0.90
2018-09-24T11:59:53.880Z,0.97
2018-09-24T12:02:40.183Z,0.80
2018-09-24T12:05:16.664Z,0.80
2018-09-24T12:07:52.782Z,0.80
2018-09-24T12:13:15.622Z,0.80
2018-09-24T12:15:50.802Z,0.80
2018-09-24T12:18:26.982Z,1.00
2018-09-24T12:21:02.246Z,1.03
2018-09-24T12:26:16.163Z,1.00
2018-09-24T12:29:02.690Z,1.00
2018-09-24T12:31:38.783Z,0.90
2018-09-24T12:34:16.082Z,0.90
2018-09-24T12:36:51.621Z,1.10
2018-09-24T12:39:26.556Z,1.00
2018-09-24T12:42:02.643Z,0.80
2018-09-24T12:44:39.026Z,1.10
2018-09-24T12:47:14.282Z,0.83
2018-09-24T12:49:49.385Z,0.90
2018-09-24T12:55:15.090Z,0.90
2018-09-24T12:57:50.683Z,0.97
2018-09-24T13:00:25.365Z,1.00
2018-09-24T13:03:01.603Z,0.90
2018-09-24T13:05:36.582Z,1.00
2018-09-24T13:08:12.943Z,1.00
2018-09-24T13:10:50.500Z,1.10
2018-09-24T13:13:25.600Z,1.33
2018-09-24T13:16:04.880Z,1.10
2018-09-24T13:21:22.482Z,0.90
2018-09-24T13:23:57.240Z,1.00
2018-09-24T13:26:32.079Z,1.10
2018-09-24T13:29:07.280Z,0.93
2018-09-24T13:31:42.679Z,1.00
2018-09-24T13:34:23.279Z,0.90
2018-09-24T13:36:59.621Z,1.10
2018-09-24T13:39:34.860Z,0.93
2018-09-24T13:42:16.722Z,0.90
2018-09-24T13:44:51.880Z,1.07
2018-09-24T13:47:29.500Z,1.10
2018-09-24T13:50:05.630Z,1.20
2018-09-24T13:52:40.539Z,1.30
2018-09-24T13:55:20.862Z,1.20
2018-09-24T13:57:55.839Z,1.10
2018-09-24T14:00:30.461Z,1.10
2018-09-24T14:03:09.923Z,1.17
2018-09-24T14:05:47.324Z,1.10
2018-09-24T14:08:22.264Z,1.17
2018-09-24T14:10:57.212Z,1.10
2018-09-24T14:13:32.504Z,1.00
2018-09-24T14:16:08.364Z,1.03
2018-09-24T14:23:59.844Z,1.30
2018-09-24T14:26:35.047Z,1.10
2018-09-24T14:29:15.285Z,1.20
2018-09-24T14:31:51.526Z,1.20
2018-09-24T14:34:26.726Z,1.00
2018-09-24T14:37:01.725Z,1.30
2018-09-24T14:39:37.826Z,1.40
2018-09-24T14:42:12.640Z,1.47
2018-09-24T14:44:48.482Z,1.20
2018-09-24T14:47:23.261Z,1.10
2018-09-24T14:49:58.880Z,1.30
2018-09-24T14:52:37.899Z,1.00
2018-09-24T14:55:13.441Z,1.20
2018-09-24T15:00:31.554Z,1.23
2018-09-24T15:03:06.423Z,1.30
2018-09-24T15:05:41.503Z,1.30
2018-09-24T15:08:18.843Z,1.20
2018-09-24T15:10:54.750Z,1.20
2018-09-24T15:13:33.602Z,1.27
2018-09-24T15:16:11.959Z,1.90
2018-09-24T15:18:57.778Z,1.20
2018-09-24T15:21:39.059Z,1.00
2018-09-24T15:24:26.619Z,1.20
2018-09-24T15:32:40.679Z,1.30
2018-09-24T15:35:25.607Z,1.20
2018-09-24T15:40:53.627Z,1.20
2018-09-24T15:43:30.445Z,1.10
2018-09-24T15:46:13.306Z,1.30
2018-09-24T15:48:55.366Z,1.20
2018-09-24T15:51:32.106Z,1.00
2018-09-24T15:54:10.826Z,1.33
2018-09-24T15:56:53.047Z,1.30
2018-09-24T15:59:34.005Z,1.10
2018-09-24T16:02:12.688Z,1.30
2018-09-24T16:04:53.719Z,1.17
2018-09-24T16:07:31.018Z,1.30
2018-09-24T16:10:08.459Z,1.43
2018-09-24T16:12:45.963Z,1.30
2018-09-24T16:15:25.821Z,1.50
2018-09-24T16:18:03.161Z,1.10
2018-09-24T16:20:41.464Z,1.27
2018-09-24T16:26:00.443Z,1.23
2018-09-24T16:28:39.042Z,1.30
2018-09-24T16:31:16.142Z,1.30
2018-09-24T16:33:57.382Z,1.10
2018-09-24T16:36:34.711Z,1.40
2018-09-24T16:39:17.044Z,1.47
2018-09-24T16:41:58.603Z,1.33
2018-09-24T16:44:42.544Z,1.13
2018-09-24T16:47:18.722Z,1.50
2018-09-24T16:49:54.418Z,1.57
2018-09-24T16:52:30.583Z,1.70
2018-09-24T16:55:06.403Z,1.50
2018-09-24T16:57:41.941Z,1.87
2018-09-24T17:00:17.481Z,1.30
2018-09-24T17:02:57.259Z,1.40
2018-09-24T17:05:33.218Z,1.17
2018-09-24T17:08:08.879Z,1.30
2018-09-24T17:10:45.019Z,1.30
2018-09-24T17:13:21.359Z,1.63
2018-09-24T17:15:58.100Z,1.70
2018-09-24T17:18:36.748Z,1.70
2018-09-24T17:21:13.939Z,1.43
2018-09-24T17:23:48.900Z,1.63
2018-09-24T17:26:23.986Z,1.37
2018-09-24T17:28:59.246Z,1.47
2018-09-24T17:31:34.425Z,1.40
2018-09-24T17:34:09.905Z,1.53
2018-09-24T17:36:46.595Z,1.47
2018-09-24T17:39:27.520Z,1.30
2018-09-24T17:44:44.443Z,1.50
2018-09-24T17:47:20.860Z,1.47
2018-09-24T17:52:35.249Z,1.53
2018-09-24T17:55:10.535Z,1.77
2018-09-24T17:57:45.699Z,1.40
2018-09-24T18:00:28.567Z,1.60
2018-09-24T18:03:03.523Z,1.40
2018-09-24T18:05:38.463Z,1.40
2018-09-24T18:08:13.802Z,1.50
2018-09-24T18:10:49.346Z,1.40
2018-09-24T18:13:24.407Z,1.30
2018-09-24T18:15:59.228Z,1.40
2018-09-24T18:18:34.260Z,1.63
2018-09-24T18:21:09.493Z,1.83
2018-09-24T18:23:45.185Z,1.57
2018-09-24T18:34:49.842Z,1.40
2018-09-24T18:40:24.909Z,1.50
2018-09-24T18:43:00.483Z,1.30
2018-09-24T18:45:35.841Z,1.37
2018-09-24T18:48:10.671Z,1.70
2018-09-24T18:50:49.923Z,1.60
2018-09-24T18:53:26.785Z,1.47
2018-09-24T18:56:02.728Z,1.80
2018-09-24T19:01:14.085Z,1.57
2018-09-24T19:03:50.670Z,1.63
2018-09-24T19:06:26.259Z,1.73
2018-09-24T19:09:07.285Z,1.73
2018-09-24T19:11:42.763Z,1.63
2018-09-24T19:14:17.869Z,1.80
2018-09-24T19:16:53.066Z,1.10
2018-09-24T19:19:28.766Z,1.23
2018-09-24T19:22:04.030Z,1.60
2018-09-24T19:24:43.261Z,1.70
2018-09-24T19:27:19.045Z,1.60
2018-09-24T19:29:54.702Z,1.60
2018-09-24T19:32:29.866Z,1.40
2018-09-24T19:35:06.020Z,1.20
2018-09-24T19:37:41.281Z,1.67
2018-09-24T19:40:16.487Z,1.70
2018-09-24T19:42:51.539Z,1.70
2018-09-24T19:45:28.763Z,1.40
2018-09-24T19:48:03.583Z,1.50
2018-09-24T19:50:39.040Z,1.40
2018-09-24T19:53:14.159Z,1.60
2018-09-24T19:55:49.781Z,1.73
2018-09-24T19:58:24.721Z,1.53
2018-09-24T20:03:42.784Z,1.70
2018-09-24T20:06:17.641Z,1.40
2018-09-24T20:08:52.899Z,1.40
2018-09-24T20:11:27.680Z,1.57
2018-09-24T20:14:09.063Z,2.03
2018-09-24T20:16:44.739Z,1.80
2018-09-24T20:19:20.802Z,1.53
2018-09-24T20:21:56.442Z,1.50
2018-09-24T20:24:34.519Z,1.60
2018-09-24T20:27:09.960Z,1.77
2018-09-24T20:29:52.759Z,1.47
2018-09-24T20:32:29.950Z,1.50
2018-09-24T20:35:07.680Z,1.47
2018-09-24T20:37:45.681Z,1.77
2018-09-24T20:40:20.644Z,1.60
2018-09-24T20:42:56.940Z,1.97
2018-09-24T20:45:32.741Z,1.60
2018-09-24T20:48:10.240Z,1.43
2018-09-24T20:50:45.800Z,1.60
2018-09-24T20:53:20.918Z,1.53
2018-09-24T20:55:56.005Z,1.50
2018-09-24T20:58:30.999Z,1.50
2018-09-24T21:01:07.359Z,1.50
2018-09-24T21:03:42.388Z,1.90
2018-09-24T21:06:19.341Z,1.73
2018-09-24T21:08:54.782Z,1.40
2018-09-24T21:11:34.125Z,1.50
2018-09-24T21:14:09.770Z,1.60
2018-09-24T21:16:44.720Z,1.50
2018-09-24T21:19:19.840Z,1.40
2018-09-24T21:21:55.382Z,1.47
2018-09-24T21:24:30.402Z,1.70
2018-09-24T21:27:05.659Z,1.63
2018-09-24T21:29:41.162Z,1.80
2018-09-24T21:32:18.645Z,1.50
2018-09-24T21:34:54.460Z,1.50
2018-09-24T21:37:29.923Z,1.43
2018-09-24T21:40:04.858Z,1.80
2018-09-24T21:42:41.184Z,2.00
2018-09-24T21:45:16.653Z,1.90
2018-09-24T22:03:27.345Z,1.40
2018-09-24T22:06:02.642Z,1.80
2018-09-24T22:08:37.902Z,1.80
2018-09-24T22:11:17.082Z,1.57
2018-09-24T22:13:56.878Z,1.50
2018-09-24T22:16:31.967Z,1.50
2018-09-24T22:19:07.003Z,1.50
2018-09-24T22:21:42.559Z,1.57
2018-09-24T22:24:17.439Z,1.60
2018-09-24T22:26:52.078Z,1.80
2018-09-24T22:29:27.078Z,1.60
2018-09-24T22:32:01.618Z,1.50
2018-09-24T22:34:36.237Z,1.50
2018-09-24T22:37:10.998Z,1.70
2018-09-24T22:39:45.539Z,2.00
2018-09-24T22:42:20.599Z,1.80
2018-09-24T22:44:56.838Z,1.60
2018-09-24T22:47:31.478Z,1.60
2018-09-24T22:50:06.498Z,1.70
2018-09-24T22:52:41.107Z,1.47
2018-09-24T22:57:56.058Z,1.47
2018-09-24T23:00:30.767Z,1.50
2018-09-24T23:03:06.290Z,1.80
2018-09-24T23:05:41.039Z,1.60
2018-09-24T23:10:55.639Z,1.37
2018-09-24T23:13:30.319Z,1.70
2018-09-24T23:16:04.839Z,1.70
2018-09-24T23:18:39.282Z,1.77
2018-09-24T23:21:18.076Z,1.40
2018-09-24T23:23:52.800Z,1.40
2018-09-24T23:26:27.559Z,1.77
2018-09-24T23:29:02.186Z,1.60
2018-09-24T23:31:36.720Z,1.80
2018-09-24T23:34:11.282Z,2.10
2018-09-24T23:36:45.960Z,1.63
2018-09-24T23:39:20.579Z,1.53
2018-09-24T23:44:42.446Z,1.57
2018-09-24T23:47:17.140Z,1.60
2018-09-24T23:49:51.780Z,1.53
2018-09-24T23:52:26.399Z,1.50
2018-09-24T23:55:01.019Z,1.50
2018-09-24T23:57:35.759Z,1.80
